createdAt,value
2018-03-14T00:07:05.675Z,1003.45
2018-03-14T00:17:05.652Z,1003.56
2018-03-14T00:27:05.708Z,1003.65
2018-03-14T00:37:05.687Z,1003.69
2018-03-14T00:47:05.662Z,1003.74
2018-03-14T00:57:05.706Z,1003.73
2018-03-14T01:07:05.675Z,1003.83
2018-03-14T01:17:05.620Z,1003.89
2018-03-14T01:27:05.680Z,1003.86
2018-03-14T01:37:05.637Z,1003.92
2018-03-14T01:47:05.720Z,1003.93
2018-03-14T01:57:05.704Z,1003.92
2018-03-14T02:07:05.672Z,1004.08
2018-03-14T02:17:05.701Z,1004.1
2018-03-14T02:27:05.661Z,1004.06
2018-03-14T02:37:05.644Z,1004.14
2018-03-14T02:47:05.684Z,1004.07
2018-03-14T02:57:05.630Z,1004.05
2018-03-14T03:07:05.590Z,1004.11
2018-03-14T03:17:05.658Z,1004.09
2018-03-14T03:27:05.623Z,1004.16
2018-03-14T03:37:05.590Z,1004.17
2018-03-14T03:47:05.658Z,1004.25
2018-03-14T03:57:05.630Z,1004.24
2018-03-14T04:07:05.660Z,1004.23
2018-03-14T04:17:05.630Z,1004.28
2018-03-14T04:27:05.584Z,1004.37
2018-03-14T04:37:05.651Z,1004.28
2018-03-14T04:47:05.619Z,1004.41
2018-03-14T04:57:05.584Z,1004.3
2018-03-14T05:07:05.643Z,1004.46
2018-03-14T05:17:05.626Z,1004.52
2018-03-14T05:27:05.671Z,1004.59
2018-03-14T05:37:05.622Z,1004.59
2018-03-14T05:47:05.589Z,1004.57
2018-03-14T05:57:05.650Z,1004.69
2018-03-14T06:07:05.612Z,1004.75
2018-03-14T06:17:05.568Z,1004.79
2018-03-14T06:27:05.644Z,1004.74
2018-03-14T06:37:06.919Z,1004.83
2018-03-14T06:47:05.574Z,1004.96
2018-03-14T06:57:05.656Z,1005.03
2018-03-14T07:07:05.603Z,1005.09
2018-03-14T07:17:05.676Z,1005.27
2018-03-14T07:27:05.606Z,1005.34
2018-03-14T07:37:05.563Z,1005.46
2018-03-14T07:47:05.539Z,1005.51
2018-03-14T07:57:05.599Z,1005.54
2018-03-14T08:07:05.546Z,1005.55
2018-03-14T08:17:05.606Z,1005.58
2018-03-14T08:27:05.570Z,1005.47
2018-03-14T08:37:05.664Z,1005.46
2018-03-14T08:47:05.597Z,1005.51
2018-03-14T08:57:05.565Z,1005.54
2018-03-14T09:07:05.611Z,1005.58
2018-03-14T09:17:05.581Z,1005.59
2018-03-14T09:27:05.649Z,1005.61
2018-03-14T09:37:05.604Z,1005.67
2018-03-14T09:47:05.531Z,1005.67
2018-03-14T09:57:05.524Z,1005.66
2018-03-14T10:07:05.589Z,1005.57
2018-03-14T10:17:05.520Z,1005.63
2018-03-14T10:27:05.522Z,1005.56
2018-03-14T10:37:05.537Z,1005.6
2018-03-14T10:47:05.527Z,1005.68
2018-03-14T10:57:05.541Z,1005.71
2018-03-14T11:07:05.554Z,1005.68
2018-03-14T11:17:05.526Z,1005.72
2018-03-14T11:27:05.524Z,1005.54
2018-03-14T11:37:05.512Z,1005.47
2018-03-14T11:47:05.533Z,1005.49
2018-03-14T11:57:05.522Z,1005.51
2018-03-14T12:07:05.533Z,1005.34
2018-03-14T12:17:05.527Z,1005.19
2018-03-14T12:27:05.568Z,1004.94
2018-03-14T12:37:05.534Z,1004.73
2018-03-14T12:47:05.553Z,1004.66
2018-03-14T12:57:05.544Z,1004.49
2018-03-14T13:07:05.529Z,1004.36
2018-03-14T13:17:05.525Z,1004.24
2018-03-14T13:27:05.538Z,1004.1
2018-03-14T13:37:05.522Z,1003.82
2018-03-14T13:47:05.528Z,1003.76
2018-03-14T13:57:05.536Z,1003.55
2018-03-14T14:07:05.609Z,1003.32
2018-03-14T14:17:05.635Z,1003
2018-03-14T14:27:05.590Z,1002.9
2018-03-14T14:37:05.551Z,1002.75
2018-03-14T14:47:05.609Z,1002.6
2018-03-14T14:57:05.572Z,1002.49
2018-03-14T15:07:05.636Z,1002.35
2018-03-14T15:17:05.610Z,1002.23
2018-03-14T15:27:05.564Z,1002.13
2018-03-14T15:37:05.644Z,1002.01
2018-03-14T15:47:05.692Z,1001.97
2018-03-14T15:57:05.569Z,1001.9
2018-03-14T16:07:05.733Z,1001.87
2018-03-14T16:17:05.571Z,1001.89
2018-03-14T16:27:06.569Z,1001.95
2018-03-14T16:37:05.612Z,1002.03
2018-03-14T16:47:05.566Z,1002.03
2018-03-14T16:57:05.631Z,1002.14
2018-03-14T17:07:05.607Z,1002.13
2018-03-14T17:17:05.584Z,1002.18
2018-03-14T17:27:05.602Z,1002.14
2018-03-14T17:37:05.571Z,1002.15
2018-03-14T17:47:05.654Z,1002.15
2018-03-14T17:57:05.704Z,1002.06
2018-03-14T18:07:05.559Z,1001.99
2018-03-14T18:17:05.534Z,1002
2018-03-14T18:27:05.514Z,1001.91
2018-03-14T18:37:05.527Z,1001.86
2018-03-14T18:47:05.508Z,1001.83
2018-03-14T18:57:05.486Z,1001.62
2018-03-14T19:07:05.509Z,1001.6
2018-03-14T19:17:05.485Z,1001.45
2018-03-14T19:27:05.489Z,1001.34
2018-03-14T19:37:05.484Z,1001.17
2018-03-14T19:47:05.483Z,1001.06
2018-03-14T19:57:05.489Z,1001
2018-03-14T20:07:05.489Z,1000.95
2018-03-14T20:17:05.476Z,1000.75
2018-03-14T20:27:05.491Z,1000.66
2018-03-14T20:37:05.488Z,1000.56
2018-03-14T20:47:05.550Z,1000.43
2018-03-14T20:57:05.499Z,1000.03
2018-03-14T21:07:05.550Z,999.92
2018-03-14T21:17:05.516Z,999.75
2018-03-14T21:27:05.575Z,999.65
2018-03-14T21:37:05.529Z,999.62
2018-03-14T21:47:05.926Z,999.46
2018-03-14T21:57:05.566Z,999.35
2018-03-14T22:07:05.651Z,999.26
2018-03-14T22:17:05.492Z,999.05
2018-03-14T22:27:05.540Z,998.88
2018-03-14T22:37:05.614Z,998.68
2018-03-14T22:47:05.542Z,998.76
2018-03-14T22:57:05.548Z,998.73
2018-03-14T23:07:05.490Z,998.58
2018-03-14T23:17:05.475Z,998.46
2018-03-14T23:27:05.551Z,998.37
2018-03-14T23:37:05.494Z,998.36
2018-03-14T23:47:05.455Z,998.28
2018-03-14T23:57:05.512Z,998.05
